Jackson Hole Airport Jackson US
ICAO: KJAC
IATA: JAC
Category: Medium
Scheduled Services: Yes

Elevation: 6451 ft
TransAlt. 18000 ft.

Airport Communications:
ATIS:120.625
AWOS 3:135.175
SALT LAKE CNTR:133.25
CTAF:118.075
GND:124.55
CASPER RDO:122.05
TWR:118.075
UNICOM:122.95

KJAC Zoom In..

If you have problems with the map follow the link
https://www.worldairports.se/pages/airport.php?
ICAO=KJAC

Runways:

(A) RW 01 length 6300 ft width 150 ft
---- / hdg 7

(B) RW 19 length 6300 ft width 150 ft
ILS 109.10 / hdg 187

Location; KJAC
Day. 10 / Time. 01.56 Zulu
* Altimeter: 30.08
* Temperature: -07° c. -19.4°f.
* Wind from: 210° Speed 05 kn.
Dewpoint: -10° c.
Visibility: 10 Statute Miles.
Clouds: Scattered 12000 ft.

KJAC 100156Z 21005KT 10SM SCT120 M07/M10 A3008 RMK AO2 SLP274 T10671100


Wind From 210°
Speed 05 kn.

 
 
jpsmedia worldairports.se 2019   terms of use